createdAt,value
2022-08-26T00:02:14.122Z,99731.84
2022-08-26T00:05:18.310Z,99733.53
2022-08-26T00:08:21.816Z,99725.00
2022-08-26T00:11:26.287Z,99731.88
2022-08-26T00:14:31.151Z,99732.69
2022-08-26T00:17:35.304Z,99734.78
2022-08-26T00:20:39.439Z,99727.31
2022-08-26T00:23:46.080Z,99723.00
2022-08-26T00:26:49.698Z,99722.53
2022-08-26T00:29:53.763Z,99721.94
2022-08-26T00:32:59.424Z,99724.44
2022-08-26T00:36:02.530Z,99727.31
2022-08-26T00:39:07.117Z,99718.84
2022-08-26T00:42:10.162Z,99714.09
2022-08-26T00:45:14.332Z,99721.53
2022-08-26T00:48:21.395Z,99720.09
2022-08-26T00:51:29.753Z,99715.12
2022-08-26T00:54:37.567Z,99721.97
2022-08-26T00:57:46.142Z,99721.97
2022-08-26T01:00:49.059Z,99725.69
2022-08-26T01:03:52.543Z,99729.44
2022-08-26T01:06:55.604Z,99724.28
2022-08-26T01:10:00.849Z,99716.16
2022-08-26T01:13:10.120Z,99724.84
2022-08-26T01:16:15.951Z,99719.06
2022-08-26T01:19:24.997Z,99724.28
2022-08-26T01:22:38.696Z,99720.31
2022-08-26T01:26:05.393Z,99730.62
2022-08-26T01:29:13.642Z,99725.66
2022-08-26T01:32:19.859Z,99716.56
2022-08-26T01:35:23.128Z,99716.94
2022-08-26T01:38:27.804Z,99718.00
2022-08-26T01:41:36.515Z,99715.75
2022-08-26T01:44:46.146Z,99721.09
2022-08-26T01:47:50.511Z,99717.00
2022-08-26T01:51:03.465Z,99714.47
2022-08-26T01:54:11.803Z,99714.50
2022-08-26T01:57:17.507Z,99710.75
2022-08-26T02:00:20.125Z,99713.25
2022-08-26T02:03:24.045Z,99712.37
2022-08-26T02:06:27.429Z,99725.00
2022-08-26T02:09:30.808Z,99719.25
2022-08-26T02:12:33.929Z,99719.03
2022-08-26T02:15:37.822Z,99713.44
2022-08-26T02:18:42.198Z,99715.66
2022-08-26T02:21:51.305Z,99711.72
2022-08-26T02:25:13.749Z,99717.94
2022-08-26T02:28:17.698Z,99711.06
2022-08-26T02:31:23.851Z,99712.66
2022-08-26T02:34:32.057Z,99712.03
2022-08-26T02:37:35.462Z,99717.72
2022-08-26T02:40:41.373Z,99711.44
2022-08-26T02:43:44.634Z,99717.63
2022-08-26T02:46:47.563Z,99710.38
2022-08-26T02:49:51.815Z,99711.63
2022-08-26T02:52:54.589Z,99715.31
2022-08-26T02:55:57.540Z,99716.34
2022-08-26T02:59:02.415Z,99717.56
2022-08-26T03:02:07.382Z,99716.91
2022-08-26T03:05:14.439Z,99718.66
2022-08-26T03:08:20.217Z,99725.00
2022-08-26T03:11:24.178Z,99714.22
2022-08-26T03:14:27.750Z,99712.97
2022-08-26T03:17:32.677Z,99709.28
2022-08-26T03:20:38.823Z,99704.28
2022-08-26T03:23:43.369Z,99701.59
2022-08-26T03:26:52.052Z,99700.72
2022-08-26T03:30:14.137Z,99704.22
2022-08-26T03:33:17.970Z,99705.84
2022-08-26T03:36:21.309Z,99700.91
2022-08-26T03:39:24.235Z,99703.00
2022-08-26T03:42:27.118Z,99698.84
2022-08-26T03:45:30.453Z,99701.50
2022-08-26T03:48:34.149Z,99702.34
2022-08-26T03:51:39.098Z,99699.56
2022-08-26T03:54:41.716Z,99691.19
2022-08-26T03:57:46.534Z,99697.66
2022-08-26T04:00:49.122Z,99701.16
2022-08-26T04:04:00.571Z,99691.56
2022-08-26T04:07:04.023Z,99696.34
2022-08-26T04:10:08.172Z,99699.19
2022-08-26T04:13:12.602Z,99697.81
2022-08-26T04:16:17.693Z,99696.13
2022-08-26T04:19:25.601Z,99696.28
2022-08-26T04:22:29.384Z,99695.87
2022-08-26T04:25:33.980Z,99692.59
2022-08-26T04:28:51.925Z,99694.50
2022-08-26T04:31:57.833Z,99705.31
2022-08-26T04:35:07.701Z,99700.16
2022-08-26T04:38:20.045Z,99700.25
2022-08-26T04:41:24.167Z,99696.34
2022-08-26T04:44:29.995Z,99698.69
2022-08-26T04:47:34.460Z,99697.06
2022-08-26T04:50:40.800Z,99699.59
2022-08-26T04:53:47.237Z,99699.16
2022-08-26T04:56:51.073Z,99703.94
2022-08-26T04:59:54.537Z,99699.38
2022-08-26T05:02:58.734Z,99703.53
2022-08-26T05:06:05.589Z,99706.38
2022-08-26T05:09:09.861Z,99702.41
2022-08-26T05:12:12.871Z,99699.81
2022-08-26T05:15:15.941Z,99705.59
2022-08-26T05:18:22.843Z,99708.59
2022-08-26T05:22:07.815Z,99712.28
2022-08-26T05:26:17.246Z,99707.12
2022-08-26T05:29:25.603Z,99705.88
2022-08-26T05:32:28.861Z,99713.66
2022-08-26T05:35:34.709Z,99712.34
2022-08-26T05:38:38.422Z,99716.94
2022-08-26T05:41:44.745Z,99718.78
2022-08-26T05:49:03.975Z,99718.59
2022-08-26T05:53:07.530Z,99731.22
2022-08-26T06:01:19.709Z,99732.19
2022-08-26T06:04:51.933Z,99735.84
2022-08-26T06:08:21.420Z,99736.97
2022-08-26T06:11:25.701Z,99735.72
2022-08-26T06:14:28.631Z,99737.56
2022-08-26T06:17:34.070Z,99741.69
2022-08-26T06:20:43.612Z,99739.88
2022-08-26T06:24:26.937Z,99736.84
2022-08-26T06:27:32.654Z,99746.16
2022-08-26T06:30:40.599Z,99738.06
2022-08-26T06:33:44.734Z,99739.69
2022-08-26T06:36:49.443Z,99740.84
2022-08-26T06:39:59.147Z,99736.25
2022-08-26T06:43:02.367Z,99738.78
2022-08-26T06:46:09.500Z,99741.56
2022-08-26T06:49:14.889Z,99740.66
2022-08-26T06:52:24.297Z,99732.28
2022-08-26T06:55:28.414Z,99732.56
2022-08-26T06:58:32.722Z,99733.63
2022-08-26T07:01:39.226Z,99740.75
2022-08-26T07:04:48.466Z,99732.50
2022-08-26T07:07:54.552Z,99751.34
2022-08-26T07:11:25.086Z,99737.97
2022-08-26T07:14:28.986Z,99743.31
2022-08-26T07:17:32.663Z,99738.69
2022-08-26T07:20:42.292Z,99743.84
2022-08-26T07:23:45.787Z,99744.25
2022-08-26T07:26:49.872Z,99738.75
2022-08-26T07:29:57.227Z,99743.56
2022-08-26T07:33:03.863Z,99734.47
2022-08-26T07:36:08.682Z,99731.03
2022-08-26T07:39:13.617Z,99731.53
2022-08-26T07:42:19.758Z,99731.53
2022-08-26T07:45:26.661Z,99730.66
2022-08-26T07:48:56.603Z,99736.72
2022-08-26T07:52:57.842Z,99733.69
2022-08-26T07:56:06.787Z,99727.63
2022-08-26T07:59:14.070Z,99728.25
2022-08-26T08:02:18.301Z,99731.25
2022-08-26T08:05:23.397Z,99732.38
2022-08-26T08:08:37.272Z,99721.69
2022-08-26T08:11:41.503Z,99726.06
2022-08-26T08:14:50.929Z,99734.81
2022-08-26T08:18:00.230Z,99727.59
2022-08-26T08:25:10.564Z,99724.06
2022-08-26T08:28:15.977Z,99724.63
2022-08-26T08:31:38.734Z,99718.78
2022-08-26T08:34:44.543Z,99711.47
2022-08-26T08:37:47.370Z,99708.00
2022-08-26T08:40:50.552Z,99703.94
2022-08-26T08:43:54.439Z,99697.16
2022-08-26T08:47:12.933Z,99703.44
2022-08-26T08:58:48.260Z,99699.06
2022-08-26T09:01:54.077Z,99697.06
2022-08-26T09:05:16.731Z,99697.38
2022-08-26T09:08:30.352Z,99694.91
2022-08-26T09:11:36.454Z,99692.41
2022-08-26T09:14:40.607Z,99692.47
2022-08-26T09:18:06.336Z,99688.53
2022-08-26T09:21:17.899Z,99683.94
2022-08-26T09:24:22.310Z,99684.62
2022-08-26T09:27:46.186Z,99675.88
2022-08-26T09:31:13.213Z,99676.66
2022-08-26T09:34:28.071Z,99679.97
2022-08-26T09:37:40.606Z,99679.59
2022-08-26T09:40:59.090Z,99679.13
2022-08-26T09:59:11.008Z,99659.94
2022-08-26T10:02:32.521Z,99658.09
2022-08-26T10:05:51.469Z,99662.84
2022-08-26T10:09:02.758Z,99652.09
2022-08-26T10:12:22.269Z,99660.19
2022-08-26T10:15:28.199Z,99648.63
2022-08-26T10:18:40.152Z,99649.00
2022-08-26T10:21:58.769Z,99643.03
2022-08-26T10:25:34.460Z,99647.75
2022-08-26T10:28:44.396Z,99646.16
2022-08-26T10:31:52.144Z,99644.75
2022-08-26T10:34:55.151Z,99636.47
2022-08-26T10:38:04.770Z,99626.81
2022-08-26T10:41:16.997Z,99637.22
2022-08-26T10:44:23.814Z,99618.41
2022-08-26T10:48:07.294Z,99622.88
2022-08-26T10:51:13.414Z,99614.06
2022-08-26T10:55:35.692Z,99609.47
2022-08-26T10:58:41.722Z,99602.47
2022-08-26T11:01:58.130Z,99595.59
2022-08-26T11:05:05.567Z,99600.00
2022-08-26T11:08:29.797Z,99595.00
2022-08-26T11:12:10.067Z,99596.81
2022-08-26T11:15:24.546Z,99583.13
2022-08-26T11:18:42.890Z,99588.31
2022-08-26T11:22:06.057Z,99579.13
2022-08-26T11:25:11.685Z,99584.47
2022-08-26T11:28:34.713Z,99578.41
2022-08-26T11:31:40.410Z,99577.31
2022-08-26T11:34:57.068Z,99568.50
2022-08-26T11:38:28.815Z,99569.09
2022-08-26T11:41:33.599Z,99564.31
2022-08-26T11:44:49.033Z,99558.69
2022-08-26T11:47:53.058Z,99559.25
2022-08-26T11:51:06.913Z,99562.91
2022-08-26T11:54:16.410Z,99547.53
2022-08-26T11:57:19.697Z,99549.84
2022-08-26T12:00:34.630Z,99545.69
2022-08-26T12:03:45.484Z,99544.19
2022-08-26T12:06:54.007Z,99534.69
2022-08-26T12:10:04.967Z,99530.56
2022-08-26T12:13:25.072Z,99524.38
2022-08-26T12:16:32.956Z,99528.09
2022-08-26T12:19:36.606Z,99523.34
2022-08-26T12:22:43.522Z,99509.56
2022-08-26T12:26:05.950Z,99515.00
2022-08-26T12:29:27.261Z,99505.91
2022-08-26T12:32:35.596Z,99508.25
2022-08-26T12:46:36.413Z,99498.97
2022-08-26T12:49:47.966Z,99485.25
2022-08-26T13:02:09.508Z,99479.41
2022-08-26T13:05:22.109Z,99481.09
2022-08-26T13:08:28.280Z,99473.31
2022-08-26T13:11:33.779Z,99475.56
2022-08-26T13:14:40.576Z,99465.13
2022-08-26T13:17:58.414Z,99456.25
2022-08-26T13:21:12.333Z,99450.59
2022-08-26T13:24:43.909Z,99450.03
2022-08-26T13:27:54.156Z,99444.87
2022-08-26T13:30:58.001Z,99445.28
2022-08-26T13:34:00.923Z,99440.56
2022-08-26T13:37:04.832Z,99435.47
2022-08-26T13:40:08.559Z,99438.97
2022-08-26T13:43:13.968Z,99435.25
2022-08-26T13:46:37.152Z,99428.25
2022-08-26T13:49:42.592Z,99421.69
2022-08-26T13:52:45.345Z,99429.19
2022-08-26T13:55:49.262Z,99418.41
2022-08-26T13:58:54.298Z,99422.37
2022-08-26T14:01:58.991Z,99420.72
2022-08-26T14:05:02.622Z,99421.63
2022-08-26T14:08:07.506Z,99420.56
2022-08-26T14:11:12.076Z,99422.34
2022-08-26T14:14:14.700Z,99417.44
2022-08-26T14:17:22.866Z,99414.37
2022-08-26T14:20:29.151Z,99411.78
2022-08-26T14:23:33.040Z,99413.56
2022-08-26T14:26:37.643Z,99414.50
2022-08-26T14:29:42.371Z,99422.91
2022-08-26T14:32:48.919Z,99426.06
2022-08-26T14:35:52.412Z,99430.75
2022-08-26T14:38:56.812Z,99433.31
2022-08-26T14:42:00.733Z,99418.09
2022-08-26T14:45:07.207Z,99415.41
2022-08-26T14:48:11.113Z,99426.28
2022-08-26T14:51:14.049Z,99421.75
2022-08-26T14:59:01.386Z,99419.72
2022-08-26T15:02:07.768Z,99419.69
2022-08-26T15:05:11.684Z,99416.25
2022-08-26T15:08:14.892Z,99409.78
2022-08-26T15:11:18.441Z,99404.66
2022-08-26T15:14:22.573Z,99401.56
2022-08-26T15:17:26.369Z,99404.03
2022-08-26T15:20:29.458Z,99398.34
2022-08-26T15:23:35.217Z,99403.78
2022-08-26T15:26:38.825Z,99405.72
2022-08-26T15:29:41.775Z,99393.59
2022-08-26T15:32:44.708Z,99393.81
2022-08-26T15:35:47.328Z,99391.09
2022-08-26T15:38:50.478Z,99394.66
2022-08-26T15:41:56.154Z,99393.06
2022-08-26T15:44:59.647Z,99384.84
2022-08-26T15:48:03.548Z,99390.84
2022-08-26T15:51:18.463Z,99384.28
2022-08-26T15:54:23.208Z,99380.22
2022-08-26T15:57:26.355Z,99384.03
2022-08-26T16:00:29.479Z,99375.31
2022-08-26T16:03:32.527Z,99377.25
2022-08-26T16:06:37.863Z,99375.09
2022-08-26T16:09:40.799Z,99369.94
2022-08-26T16:12:43.961Z,99374.63
2022-08-26T16:16:13.004Z,99367.22
2022-08-26T16:19:15.880Z,99366.97
2022-08-26T16:22:19.057Z,99368.87
2022-08-26T16:25:22.570Z,99362.59
2022-08-26T16:28:26.508Z,99369.16
2022-08-26T16:31:29.943Z,99362.88
2022-08-26T16:34:33.171Z,99369.72
2022-08-26T16:37:39.024Z,99367.53
2022-08-26T16:40:42.404Z,99373.00
2022-08-26T16:43:45.453Z,99371.88
2022-08-26T16:46:48.802Z,99367.22
2022-08-26T16:49:54.674Z,99367.47
2022-08-26T16:57:42.916Z,99381.63
2022-08-26T17:04:36.451Z,99378.56
2022-08-26T17:08:01.131Z,99383.72
2022-08-26T17:11:04.291Z,99379.81
2022-08-26T17:14:43.657Z,99377.63
2022-08-26T17:18:10.991Z,99374.31
2022-08-26T17:21:54.652Z,99375.63
2022-08-26T17:25:25.884Z,99373.09
2022-08-26T17:28:53.193Z,99375.72
2022-08-26T17:40:35.919Z,99376.31
2022-08-26T17:43:41.235Z,99386.81
2022-08-26T17:46:43.918Z,99386.78
2022-08-26T17:49:47.137Z,99378.78
2022-08-26T17:56:55.184Z,99380.34
2022-08-26T18:00:00.601Z,99383.44
2022-08-26T18:03:04.094Z,99379.16
2022-08-26T18:06:25.084Z,99378.34
2022-08-26T18:09:35.188Z,99384.81
2022-08-26T18:12:38.187Z,99387.44
2022-08-26T18:15:43.080Z,99390.00
2022-08-26T18:18:47.895Z,99383.97
2022-08-26T18:26:26.800Z,99386.31
2022-08-26T18:29:29.835Z,99389.63
2022-08-26T18:32:32.425Z,99384.97
2022-08-26T18:35:45.276Z,99382.56
2022-08-26T18:38:50.415Z,99384.31
2022-08-26T18:41:53.616Z,99386.38
2022-08-26T18:44:56.409Z,99388.94
2022-08-26T18:47:59.541Z,99391.59
2022-08-26T18:51:02.312Z,99392.06
2022-08-26T18:54:08.287Z,99391.16
2022-08-26T18:57:12.140Z,99383.94
2022-08-26T19:00:15.669Z,99388.72
2022-08-26T19:03:19.269Z,99383.63
2022-08-26T19:06:23.982Z,99385.78
2022-08-26T19:09:27.261Z,99386.75
2022-08-26T19:12:30.542Z,99395.41
2022-08-26T19:15:41.281Z,99400.56
2022-08-26T19:18:45.318Z,99397.09
2022-08-26T19:21:52.996Z,99405.63
2022-08-26T19:29:34.493Z,99404.53
2022-08-26T19:32:38.332Z,99412.44
2022-08-26T19:35:47.756Z,99416.22
2022-08-26T19:46:45.964Z,99414.03
2022-08-26T19:49:54.312Z,99418.38
2022-08-26T19:52:56.975Z,99420.03
2022-08-26T19:55:59.896Z,99415.13
2022-08-26T19:59:03.592Z,99422.06
2022-08-26T20:02:11.066Z,99427.94
2022-08-26T20:05:16.145Z,99431.59
2022-08-26T20:08:22.408Z,99427.34
2022-08-26T20:11:26.217Z,99441.81
2022-08-26T20:14:48.723Z,99432.53
2022-08-26T20:17:52.378Z,99440.19
2022-08-26T20:21:13.878Z,99443.22
2022-08-26T20:24:19.942Z,99444.16
2022-08-26T20:27:47.336Z,99443.59
2022-08-26T20:30:50.919Z,99443.00
2022-08-26T20:33:54.525Z,99445.09
2022-08-26T20:36:57.956Z,99457.81
2022-08-26T20:40:01.211Z,99458.88
2022-08-26T20:43:06.050Z,99455.09
2022-08-26T20:46:17.954Z,99456.47
2022-08-26T20:49:22.656Z,99454.06
2022-08-26T20:52:25.820Z,99461.59
2022-08-26T20:55:29.736Z,99459.59
2022-08-26T20:58:34.711Z,99465.31
2022-08-26T21:01:42.403Z,99466.16
2022-08-26T21:04:45.328Z,99464.91
2022-08-26T21:07:48.425Z,99465.91
2022-08-26T21:10:52.121Z,99474.28
2022-08-26T21:14:16.762Z,99473.53
2022-08-26T21:17:20.935Z,99483.75
2022-08-26T21:20:24.641Z,99483.22
2022-08-26T21:23:47.748Z,99474.84
2022-08-26T21:26:51.888Z,99486.66
2022-08-26T21:29:54.815Z,99480.34
2022-08-26T21:33:40.945Z,99481.84
2022-08-26T21:37:09.023Z,99483.28
2022-08-26T21:40:19.497Z,99485.06
2022-08-26T21:43:35.105Z,99488.53
2022-08-26T21:46:38.604Z,99485.97
2022-08-26T21:49:41.303Z,99489.38
2022-08-26T21:52:46.594Z,99483.56
2022-08-26T21:55:49.394Z,99486.81
2022-08-26T21:58:55.029Z,99480.94
2022-08-26T22:01:58.867Z,99482.87
2022-08-26T22:05:02.147Z,99479.28
2022-08-26T22:08:04.846Z,99482.06
2022-08-26T22:11:09.533Z,99479.22
2022-08-26T22:14:12.575Z,99478.78
2022-08-26T22:17:17.186Z,99473.22
2022-08-26T22:20:20.048Z,99474.28
2022-08-26T22:23:23.913Z,99477.13
2022-08-26T22:26:30.383Z,99473.66
2022-08-26T22:29:33.391Z,99478.78
2022-08-26T22:32:39.549Z,99473.34
2022-08-26T22:35:48.345Z,99475.00
2022-08-26T22:38:51.232Z,99471.09
2022-08-26T22:41:55.252Z,99466.75
2022-08-26T22:44:58.255Z,99469.78
2022-08-26T22:48:05.113Z,99467.94
2022-08-26T22:51:07.800Z,99470.97
2022-08-26T22:54:11.354Z,99463.44
2022-08-26T22:57:14.004Z,99466.00
2022-08-26T23:00:17.006Z,99463.66
2022-08-26T23:03:20.755Z,99459.75
2022-08-26T23:06:25.626Z,99457.78
2022-08-26T23:09:29.265Z,99456.41
2022-08-26T23:12:32.578Z,99450.09
2022-08-26T23:15:36.320Z,99454.63
2022-08-26T23:18:40.849Z,99457.03
2022-08-26T23:21:43.911Z,99454.59
2022-08-26T23:24:46.798Z,99446.44
2022-08-26T23:27:50.234Z,99454.53
2022-08-26T23:30:53.942Z,99455.44
2022-08-26T23:34:15.046Z,99443.88
2022-08-26T23:37:19.678Z,99440.34
2022-08-26T23:40:27.109Z,99442.63
2022-08-26T23:43:30.213Z,99430.97
2022-08-26T23:46:33.922Z,99432.72
2022-08-26T23:49:37.340Z,99434.34
2022-08-26T23:52:58.733Z,99437.66
2022-08-26T23:56:01.693Z,99436.44
2022-08-26T23:59:04.520Z,99428.16
